sensor_id;sensor_type;location;lat;lon;timestamp;temperature;humidity
17437;DHT22;70275;52.198;5.422;2023-06-24T00:00:43;20.00;70.00
17437;DHT22;70275;52.198;5.422;2023-06-24T00:03:12;19.90;69.70
17437;DHT22;70275;52.198;5.422;2023-06-24T00:05:45;19.90;70.10
17437;DHT22;70275;52.198;5.422;2023-06-24T00:08:14;19.90;70.20
17437;DHT22;70275;52.198;5.422;2023-06-24T00:10:44;19.80;70.40
17437;DHT22;70275;52.198;5.422;2023-06-24T00:13:15;19.80;70.30
17437;DHT22;70275;52.198;5.422;2023-06-24T00:15:44;19.70;70.70
17437;DHT22;70275;52.198;5.422;2023-06-24T00:18:13;19.70;70.80
17437;DHT22;70275;52.198;5.422;2023-06-24T00:20:45;19.70;71.00
17437;DHT22;70275;52.198;5.422;2023-06-24T00:23:17;19.80;70.60
17437;DHT22;70275;52.198;5.422;2023-06-24T00:25:52;19.90;70.20
17437;DHT22;70275;52.198;5.422;2023-06-24T00:28:22;19.60;71.00
17437;DHT22;70275;52.198;5.422;2023-06-24T00:30:51;19.50;71.40
17437;DHT22;70275;52.198;5.422;2023-06-24T00:33:21;19.50;72.00
17437;DHT22;70275;52.198;5.422;2023-06-24T00:35:52;19.40;72.50
17437;DHT22;70275;52.198;5.422;2023-06-24T00:38:22;19.40;72.60
17437;DHT22;70275;52.198;5.422;2023-06-24T00:40:51;19.40;72.60
17437;DHT22;70275;52.198;5.422;2023-06-24T00:43:20;19.50;72.40
17437;DHT22;70275;52.198;5.422;2023-06-24T00:45:53;19.50;72.90
17437;DHT22;70275;52.198;5.422;2023-06-24T00:48:22;19.60;72.30
17437;DHT22;70275;52.198;5.422;2023-06-24T00:50:54;19.60;72.10
17437;DHT22;70275;52.198;5.422;2023-06-24T00:53:24;19.60;72.10
17437;DHT22;70275;52.198;5.422;2023-06-24T00:55:54;19.60;72.30
17437;DHT22;70275;52.198;5.422;2023-06-24T00:58:28;19.70;72.10
17437;DHT22;70275;52.198;5.422;2023-06-24T01:00:58;19.60;72.10
17437;DHT22;70275;52.198;5.422;2023-06-24T01:03:28;19.80;71.00
17437;DHT22;70275;52.198;5.422;2023-06-24T01:06:01;19.70;71.60
17437;DHT22;70275;52.198;5.422;2023-06-24T01:08:31;19.70;72.50
17437;DHT22;70275;52.198;5.422;2023-06-24T01:11:00;19.70;72.50
17437;DHT22;70275;52.198;5.422;2023-06-24T01:13:30;19.70;72.40
17437;DHT22;70275;52.198;5.422;2023-06-24T01:16:02;19.60;73.20
17437;DHT22;70275;52.198;5.422;2023-06-24T01:18:43;19.40;73.60
17437;DHT22;70275;52.198;5.422;2023-06-24T01:21:32;19.40;73.70
17437;DHT22;70275;52.198;5.422;2023-06-24T01:24:33;19.40;74.20
17437;DHT22;70275;52.198;5.422;2023-06-24T01:27:29;19.30;74.40
17437;DHT22;70275;52.198;5.422;2023-06-24T01:30:23;19.30;74.50
17437;DHT22;70275;52.198;5.422;2023-06-24T01:33:11;19.20;74.70
17437;DHT22;70275;52.198;5.422;2023-06-24T01:35:44;19.20;75.00
17437;DHT22;70275;52.198;5.422;2023-06-24T01:38:23;19.10;75.10
17437;DHT22;70275;52.198;5.422;2023-06-24T01:40:57;19.10;75.60
17437;DHT22;70275;52.198;5.422;2023-06-24T01:43:30;19.00;76.10
17437;DHT22;70275;52.198;5.422;2023-06-24T01:46:02;18.90;76.80
17437;DHT22;70275;52.198;5.422;2023-06-24T01:48:39;18.80;77.20
17437;DHT22;70275;52.198;5.422;2023-06-24T01:51:17;18.90;76.60
17437;DHT22;70275;52.198;5.422;2023-06-24T01:53:51;18.90;76.70
17437;DHT22;70275;52.198;5.422;2023-06-24T01:56:23;18.90;77.20
17437;DHT22;70275;52.198;5.422;2023-06-24T01:58:58;18.70;77.30
17437;DHT22;70275;52.198;5.422;2023-06-24T02:01:32;18.60;77.70
17437;DHT22;70275;52.198;5.422;2023-06-24T02:04:08;18.50;77.80
17437;DHT22;70275;52.198;5.422;2023-06-24T02:06:39;18.50;77.50
17437;DHT22;70275;52.198;5.422;2023-06-24T02:09:10;18.40;78.00
17437;DHT22;70275;52.198;5.422;2023-06-24T02:11:41;18.40;77.70
17437;DHT22;70275;52.198;5.422;2023-06-24T02:14:12;18.30;77.80
17437;DHT22;70275;52.198;5.422;2023-06-24T02:16:45;18.30;78.00
17437;DHT22;70275;52.198;5.422;2023-06-24T02:19:19;18.20;78.00
17437;DHT22;70275;52.198;5.422;2023-06-24T02:21:49;18.20;78.00
17437;DHT22;70275;52.198;5.422;2023-06-24T02:24:21;18.10;78.20
17437;DHT22;70275;52.198;5.422;2023-06-24T02:26:52;18.10;78.40
17437;DHT22;70275;52.198;5.422;2023-06-24T02:29:25;18.10;78.40
17437;DHT22;70275;52.198;5.422;2023-06-24T02:31:55;17.90;78.80
17437;DHT22;70275;52.198;5.422;2023-06-24T02:34:27;17.80;79.30
17437;DHT22;70275;52.198;5.422;2023-06-24T02:36:57;17.80;79.40
17437;DHT22;70275;52.198;5.422;2023-06-24T02:39:26;17.70;79.40
17437;DHT22;70275;52.198;5.422;2023-06-24T02:41:55;17.70;79.60
17437;DHT22;70275;52.198;5.422;2023-06-24T02:44:24;17.90;79.30
17437;DHT22;70275;52.198;5.422;2023-06-24T02:46:54;17.80;79.40
17437;DHT22;70275;52.198;5.422;2023-06-24T02:49:28;17.70;79.60
17437;DHT22;70275;52.198;5.422;2023-06-24T02:51:58;17.60;79.90
17437;DHT22;70275;52.198;5.422;2023-06-24T02:54:27;17.50;80.10
17437;DHT22;70275;52.198;5.422;2023-06-24T02:56:58;17.50;80.10
17437;DHT22;70275;52.198;5.422;2023-06-24T02:59:27;17.50;80.10
17437;DHT22;70275;52.198;5.422;2023-06-24T03:01:57;17.50;80.20
17437;DHT22;70275;52.198;5.422;2023-06-24T03:04:29;17.50;80.30
17437;DHT22;70275;52.198;5.422;2023-06-24T03:07:00;17.50;80.40
17437;DHT22;70275;52.198;5.422;2023-06-24T03:09:33;17.60;79.90
17437;DHT22;70275;52.198;5.422;2023-06-24T03:12:05;17.70;80.00
17437;DHT22;70275;52.198;5.422;2023-06-24T03:14:35;17.70;79.90
17437;DHT22;70275;52.198;5.422;2023-06-24T03:17:04;17.70;80.00
17437;DHT22;70275;52.198;5.422;2023-06-24T03:19:36;17.70;79.90
17437;DHT22;70275;52.198;5.422;2023-06-24T03:22:05;17.70;79.90
17437;DHT22;70275;52.198;5.422;2023-06-24T03:24:34;17.60;80.10
17437;DHT22;70275;52.198;5.422;2023-06-24T03:27:04;17.60;80.30
17437;DHT22;70275;52.198;5.422;2023-06-24T03:29:33;17.60;80.30
17437;DHT22;70275;52.198;5.422;2023-06-24T03:32:02;17.70;80.20
17437;DHT22;70275;52.198;5.422;2023-06-24T03:34:32;17.40;80.50
17437;DHT22;70275;52.198;5.422;2023-06-24T03:37:04;17.40;80.90
17437;DHT22;70275;52.198;5.422;2023-06-24T03:39:33;17.50;80.60
17437;DHT22;70275;52.198;5.422;2023-06-24T03:42:03;17.60;80.70
17437;DHT22;70275;52.198;5.422;2023-06-24T03:44:32;17.60;80.60
17437;DHT22;70275;52.198;5.422;2023-06-24T03:47:01;17.70;80.20
17437;DHT22;70275;52.198;5.422;2023-06-24T03:49:30;17.60;80.70
17437;DHT22;70275;52.198;5.422;2023-06-24T03:51:59;17.60;80.60
17437;DHT22;70275;52.198;5.422;2023-06-24T03:54:34;17.50;80.70
17437;DHT22;70275;52.198;5.422;2023-06-24T03:57:05;17.50;80.90
17437;DHT22;70275;52.198;5.422;2023-06-24T03:59:35;17.50;80.90
17437;DHT22;70275;52.198;5.422;2023-06-24T04:02:05;17.40;80.60
17437;DHT22;70275;52.198;5.422;2023-06-24T04:04:35;17.30;81.10
17437;DHT22;70275;52.198;5.422;2023-06-24T04:07:07;17.30;81.00
17437;DHT22;70275;52.198;5.422;2023-06-24T04:09:36;17.30;81.20
17437;DHT22;70275;52.198;5.422;2023-06-24T04:12:06;17.40;81.20
17437;DHT22;70275;52.198;5.422;2023-06-24T04:14:35;17.40;81.00
17437;DHT22;70275;52.198;5.422;2023-06-24T04:17:04;17.40;81.00
17437;DHT22;70275;52.198;5.422;2023-06-24T04:19:33;17.50;81.00
17437;DHT22;70275;52.198;5.422;2023-06-24T04:22:03;17.40;81.10
17437;DHT22;70275;52.198;5.422;2023-06-24T04:24:34;17.40;81.10
17437;DHT22;70275;52.198;5.422;2023-06-24T04:27:05;17.50;80.90
17437;DHT22;70275;52.198;5.422;2023-06-24T04:29:36;17.50;80.90
17437;DHT22;70275;52.198;5.422;2023-06-24T04:32:05;17.50;80.90
17437;DHT22;70275;52.198;5.422;2023-06-24T04:34:35;17.60;80.60
17437;DHT22;70275;52.198;5.422;2023-06-24T04:37:06;17.80;80.20
17437;DHT22;70275;52.198;5.422;2023-06-24T04:39:37;17.90;79.80
17437;DHT22;70275;52.198;5.422;2023-06-24T04:42:07;18.20;79.20
17437;DHT22;70275;52.198;5.422;2023-06-24T04:44:36;18.40;78.80
17437;DHT22;70275;52.198;5.422;2023-06-24T04:47:05;18.50;78.00
17437;DHT22;70275;52.198;5.422;2023-06-24T04:49:34;18.70;77.60
17437;DHT22;70275;52.198;5.422;2023-06-24T04:52:06;18.80;77.30
17437;DHT22;70275;52.198;5.422;2023-06-24T04:54:38;18.90;76.50
17437;DHT22;70275;52.198;5.422;2023-06-24T04:57:09;19.30;75.40
17437;DHT22;70275;52.198;5.422;2023-06-24T04:59:50;19.40;74.80
17437;DHT22;70275;52.198;5.422;2023-06-24T05:02:19;19.40;74.20
17437;DHT22;70275;52.198;5.422;2023-06-24T05:04:48;19.50;73.50
17437;DHT22;70275;52.198;5.422;2023-06-24T05:07:18;19.50;73.80
17437;DHT22;70275;52.198;5.422;2023-06-24T05:09:50;19.50;73.40
17437;DHT22;70275;52.198;5.422;2023-06-24T05:12:19;19.40;74.60
17437;DHT22;70275;52.198;5.422;2023-06-24T05:14:50;19.30;74.00
17437;DHT22;70275;52.198;5.422;2023-06-24T05:17:20;19.30;73.80
17437;DHT22;70275;52.198;5.422;2023-06-24T05:19:49;19.50;73.30
17437;DHT22;70275;52.198;5.422;2023-06-24T05:22:18;19.70;70.30
17437;DHT22;70275;52.198;5.422;2023-06-24T05:24:50;19.70;70.20
17437;DHT22;70275;52.198;5.422;2023-06-24T05:27:19;19.90;68.50
17437;DHT22;70275;52.198;5.422;2023-06-24T05:29:48;19.80;68.00
17437;DHT22;70275;52.198;5.422;2023-06-24T05:32:17;19.90;67.60
17437;DHT22;70275;52.198;5.422;2023-06-24T05:34:46;20.10;66.50
17437;DHT22;70275;52.198;5.422;2023-06-24T05:37:15;20.10;67.00
17437;DHT22;70275;52.198;5.422;2023-06-24T05:39:44;20.20;65.90
17437;DHT22;70275;52.198;5.422;2023-06-24T05:42:15;20.10;65.70
17437;DHT22;70275;52.198;5.422;2023-06-24T05:44:44;20.10;66.40
17437;DHT22;70275;52.198;5.422;2023-06-24T05:47:14;20.30;65.10
17437;DHT22;70275;52.198;5.422;2023-06-24T05:49:43;20.20;64.90
17437;DHT22;70275;52.198;5.422;2023-06-24T05:52:12;20.30;65.00
17437;DHT22;70275;52.198;5.422;2023-06-24T05:54:41;20.40;64.80
17437;DHT22;70275;52.198;5.422;2023-06-24T05:57:10;20.60;63.90
17437;DHT22;70275;52.198;5.422;2023-06-24T05:59:41;20.60;63.30
17437;DHT22;70275;52.198;5.422;2023-06-24T06:02:10;20.70;63.40
17437;DHT22;70275;52.198;5.422;2023-06-24T06:04:40;20.90;63.00
17437;DHT22;70275;52.198;5.422;2023-06-24T06:07:09;20.90;63.30
17437;DHT22;70275;52.198;5.422;2023-06-24T06:09:38;21.00;63.00
17437;DHT22;70275;52.198;5.422;2023-06-24T06:12:08;21.00;62.50
17437;DHT22;70275;52.198;5.422;2023-06-24T06:14:37;21.10;62.50
17437;DHT22;70275;52.198;5.422;2023-06-24T06:17:09;21.00;63.00
17437;DHT22;70275;52.198;5.422;2023-06-24T06:19:38;21.10;62.20
17437;DHT22;70275;52.198;5.422;2023-06-24T06:22:07;21.00;63.10
17437;DHT22;70275;52.198;5.422;2023-06-24T06:24:36;21.20;63.10
17437;DHT22;70275;52.198;5.422;2023-06-24T06:27:09;21.40;62.00
17437;DHT22;70275;52.198;5.422;2023-06-24T06:29:41;21.40;61.80
17437;DHT22;70275;52.198;5.422;2023-06-24T06:32:10;21.40;62.60
17437;DHT22;70275;52.198;5.422;2023-06-24T06:34:39;21.50;62.20
17437;DHT22;70275;52.198;5.422;2023-06-24T06:37:08;21.60;61.70
17437;DHT22;70275;52.198;5.422;2023-06-24T06:39:37;21.80;62.00
17437;DHT22;70275;52.198;5.422;2023-06-24T06:42:07;21.90;60.80
17437;DHT22;70275;52.198;5.422;2023-06-24T06:44:36;22.00;61.30
17437;DHT22;70275;52.198;5.422;2023-06-24T06:47:08;22.00;60.90
17437;DHT22;70275;52.198;5.422;2023-06-24T06:49:37;21.90;60.80
17437;DHT22;70275;52.198;5.422;2023-06-24T06:52:07;22.00;60.90
17437;DHT22;70275;52.198;5.422;2023-06-24T06:54:36;22.30;60.80
17437;DHT22;70275;52.198;5.422;2023-06-24T06:57:05;22.50;59.60
17437;DHT22;70275;52.198;5.422;2023-06-24T06:59:35;22.60;59.50
17437;DHT22;70275;52.198;5.422;2023-06-24T07:02:07;22.70;58.50
17437;DHT22;70275;52.198;5.422;2023-06-24T07:04:36;22.80;58.60
17437;DHT22;70275;52.198;5.422;2023-06-24T07:07:05;22.80;58.50
17437;DHT22;70275;52.198;5.422;2023-06-24T07:09:34;22.80;59.20
17437;DHT22;70275;52.198;5.422;2023-06-24T07:12:05;23.00;57.60
17437;DHT22;70275;52.198;5.422;2023-06-24T07:14:35;22.90;57.30
17437;DHT22;70275;52.198;5.422;2023-06-24T07:17:07;22.90;57.90
17437;DHT22;70275;52.198;5.422;2023-06-24T07:19:36;23.00;58.60
17437;DHT22;70275;52.198;5.422;2023-06-24T07:22:05;23.20;58.10
17437;DHT22;70275;52.198;5.422;2023-06-24T07:24:34;23.30;56.70
17437;DHT22;70275;52.198;5.422;2023-06-24T07:27:04;23.30;56.10
17437;DHT22;70275;52.198;5.422;2023-06-24T07:29:33;23.60;55.90
17437;DHT22;70275;52.198;5.422;2023-06-24T07:32:03;23.50;56.10
17437;DHT22;70275;52.198;5.422;2023-06-24T07:34:35;23.60;55.10
17437;DHT22;70275;52.198;5.422;2023-06-24T07:37:04;23.60;54.70
17437;DHT22;70275;52.198;5.422;2023-06-24T07:39:33;23.80;53.80
17437;DHT22;70275;52.198;5.422;2023-06-24T07:42:03;23.80;54.40
17437;DHT22;70275;52.198;5.422;2023-06-24T07:44:32;24.00;53.70
17437;DHT22;70275;52.198;5.422;2023-06-24T07:47:02;24.00;53.50
17437;DHT22;70275;52.198;5.422;2023-06-24T07:49:32;23.90;54.10
17437;DHT22;70275;52.198;5.422;2023-06-24T07:52:04;24.10;52.60
17437;DHT22;70275;52.198;5.422;2023-06-24T07:54:34;24.30;53.10
17437;DHT22;70275;52.198;5.422;2023-06-24T07:57:03;24.30;53.20
17437;DHT22;70275;52.198;5.422;2023-06-24T07:59:33;24.50;53.00
17437;DHT22;70275;52.198;5.422;2023-06-24T08:02:02;24.50;52.30
17437;DHT22;70275;52.198;5.422;2023-06-24T08:04:34;24.70;52.00
17437;DHT22;70275;52.198;5.422;2023-06-24T08:07:04;24.60;52.40
17437;DHT22;70275;52.198;5.422;2023-06-24T08:09:33;24.60;52.30
17437;DHT22;70275;52.198;5.422;2023-06-24T08:12:03;24.50;51.60
17437;DHT22;70275;52.198;5.422;2023-06-24T08:14:33;24.80;52.60
17437;DHT22;70275;52.198;5.422;2023-06-24T08:17:02;24.80;52.50
17437;DHT22;70275;52.198;5.422;2023-06-24T08:19:32;24.90;52.00
17437;DHT22;70275;52.198;5.422;2023-06-24T08:22:04;25.00;51.90
17437;DHT22;70275;52.198;5.422;2023-06-24T08:24:33;25.10;51.50
17437;DHT22;70275;52.198;5.422;2023-06-24T08:27:02;25.00;50.80
17437;DHT22;70275;52.198;5.422;2023-06-24T08:29:32;25.00;51.20
17437;DHT22;70275;52.198;5.422;2023-06-24T08:32:01;25.10;51.80
17437;DHT22;70275;52.198;5.422;2023-06-24T08:34:30;25.30;49.90
17437;DHT22;70275;52.198;5.422;2023-06-24T08:37:02;25.20;51.00
17437;DHT22;70275;52.198;5.422;2023-06-24T08:39:31;25.40;50.20
17437;DHT22;70275;52.198;5.422;2023-06-24T08:42:00;25.60;49.40
17437;DHT22;70275;52.198;5.422;2023-06-24T08:44:29;25.60;49.10
17437;DHT22;70275;52.198;5.422;2023-06-24T08:46:58;25.80;49.20
17437;DHT22;70275;52.198;5.422;2023-06-24T08:49:30;25.90;48.30
17437;DHT22;70275;52.198;5.422;2023-06-24T08:52:03;26.10;47.30
17437;DHT22;70275;52.198;5.422;2023-06-24T08:54:36;26.10;48.00
17437;DHT22;70275;52.198;5.422;2023-06-24T08:57:07;26.20;47.50
17437;DHT22;70275;52.198;5.422;2023-06-24T08:59:42;26.30;47.10
17437;DHT22;70275;52.198;5.422;2023-06-24T09:02:11;26.30;47.10
17437;DHT22;70275;52.198;5.422;2023-06-24T09:04:40;26.60;47.40
17437;DHT22;70275;52.198;5.422;2023-06-24T09:07:12;26.70;47.30
17437;DHT22;70275;52.198;5.422;2023-06-24T09:09:44;26.50;46.90
17437;DHT22;70275;52.198;5.422;2023-06-24T09:12:14;26.50;46.80
17437;DHT22;70275;52.198;5.422;2023-06-24T09:14:48;26.40;47.90
17437;DHT22;70275;52.198;5.422;2023-06-24T09:17:19;26.50;48.10
17437;DHT22;70275;52.198;5.422;2023-06-24T09:19:49;26.50;47.60
17437;DHT22;70275;52.198;5.422;2023-06-24T09:22:21;26.40;47.00
17437;DHT22;70275;52.198;5.422;2023-06-24T09:24:50;26.20;46.80
17437;DHT22;70275;52.198;5.422;2023-06-24T09:27:19;26.30;47.20
17437;DHT22;70275;52.198;5.422;2023-06-24T09:29:49;26.40;47.20
17437;DHT22;70275;52.198;5.422;2023-06-24T09:32:18;26.50;47.50
17437;DHT22;70275;52.198;5.422;2023-06-24T09:34:47;26.60;46.50
17437;DHT22;70275;52.198;5.422;2023-06-24T09:37:25;26.60;46.50
17437;DHT22;70275;52.198;5.422;2023-06-24T09:39:56;26.60;47.20
17437;DHT22;70275;52.198;5.422;2023-06-24T09:42:27;26.50;47.80
17437;DHT22;70275;52.198;5.422;2023-06-24T09:44:56;26.70;47.50
17437;DHT22;70275;52.198;5.422;2023-06-24T09:47:25;26.80;47.00
17437;DHT22;70275;52.198;5.422;2023-06-24T09:49:54;26.90;46.80
17437;DHT22;70275;52.198;5.422;2023-06-24T09:52:26;26.90;46.20
17437;DHT22;70275;52.198;5.422;2023-06-24T09:54:57;27.00;46.40
17437;DHT22;70275;52.198;5.422;2023-06-24T09:57:31;27.30;45.10
17437;DHT22;70275;52.198;5.422;2023-06-24T10:00:04;27.10;44.90
17437;DHT22;70275;52.198;5.422;2023-06-24T10:02:36;27.30;45.30
17437;DHT22;70275;52.198;5.422;2023-06-24T10:05:06;27.30;45.30
17437;DHT22;70275;52.198;5.422;2023-06-24T10:07:39;27.50;45.10
17437;DHT22;70275;52.198;5.422;2023-06-24T10:10:10;27.40;46.40
17437;DHT22;70275;52.198;5.422;2023-06-24T10:12:40;27.40;46.30
17437;DHT22;70275;52.198;5.422;2023-06-24T10:15:09;27.30;45.30
17437;DHT22;70275;52.198;5.422;2023-06-24T10:17:39;27.50;45.60
17437;DHT22;70275;52.198;5.422;2023-06-24T10:20:09;27.40;45.80
17437;DHT22;70275;52.198;5.422;2023-06-24T10:22:45;27.40;45.60
17437;DHT22;70275;52.198;5.422;2023-06-24T10:25:15;27.80;45.10
17437;DHT22;70275;52.198;5.422;2023-06-24T10:27:44;27.80;42.70
17437;DHT22;70275;52.198;5.422;2023-06-24T10:30:17;27.70;44.40
17437;DHT22;70275;52.198;5.422;2023-06-24T10:32:51;27.50;44.30
17437;DHT22;70275;52.198;5.422;2023-06-24T10:35:26;27.70;43.60
17437;DHT22;70275;52.198;5.422;2023-06-24T10:38:01;27.50;45.40
17437;DHT22;70275;52.198;5.422;2023-06-24T10:40:37;27.90;45.40
17437;DHT22;70275;52.198;5.422;2023-06-24T10:43:26;28.30;44.70
17437;DHT22;70275;52.198;5.422;2023-06-24T10:45:57;28.00;42.50
17437;DHT22;70275;52.198;5.422;2023-06-24T10:48:26;27.60;43.60
17437;DHT22;70275;52.198;5.422;2023-06-24T10:50:55;28.00;43.10
17437;DHT22;70275;52.198;5.422;2023-06-24T10:53:27;28.10;44.10
17437;DHT22;70275;52.198;5.422;2023-06-24T10:55:57;27.60;44.40
17437;DHT22;70275;52.198;5.422;2023-06-24T10:58:26;27.70;45.30
17437;DHT22;70275;52.198;5.422;2023-06-24T11:01:06;28.10;44.00
17437;DHT22;70275;52.198;5.422;2023-06-24T11:03:40;28.70;42.90
17437;DHT22;70275;52.198;5.422;2023-06-24T11:06:11;28.00;43.80
17437;DHT22;70275;52.198;5.422;2023-06-24T11:08:46;27.60;44.50
17437;DHT22;70275;52.198;5.422;2023-06-24T11:11:21;28.40;43.40
17437;DHT22;70275;52.198;5.422;2023-06-24T11:13:50;28.60;42.10
17437;DHT22;70275;52.198;5.422;2023-06-24T11:16:21;28.40;43.10
17437;DHT22;70275;52.198;5.422;2023-06-24T11:18:50;29.00;43.40
17437;DHT22;70275;52.198;5.422;2023-06-24T11:21:19;30.50;40.00
17437;DHT22;70275;52.198;5.422;2023-06-24T11:23:51;29.50;41.20
17437;DHT22;70275;52.198;5.422;2023-06-24T11:26:20;28.90;42.50
17437;DHT22;70275;52.198;5.422;2023-06-24T11:28:49;29.00;42.50
17437;DHT22;70275;52.198;5.422;2023-06-24T11:31:18;28.60;42.60
17437;DHT22;70275;52.198;5.422;2023-06-24T11:33:48;28.50;42.50
17437;DHT22;70275;52.198;5.422;2023-06-24T11:36:18;29.20;41.20
17437;DHT22;70275;52.198;5.422;2023-06-24T11:38:50;29.60;41.30
17437;DHT22;70275;52.198;5.422;2023-06-24T11:41:20;30.70;40.60
17437;DHT22;70275;52.198;5.422;2023-06-24T11:43:51;30.60;40.80
17437;DHT22;70275;52.198;5.422;2023-06-24T11:46:24;30.90;38.70
17437;DHT22;70275;52.198;5.422;2023-06-24T11:49:03;30.90;39.80
17437;DHT22;70275;52.198;5.422;2023-06-24T11:51:33;31.70;37.50
17437;DHT22;70275;52.198;5.422;2023-06-24T11:54:06;32.40;35.30
17437;DHT22;70275;52.198;5.422;2023-06-24T11:56:35;32.10;35.40
17437;DHT22;70275;52.198;5.422;2023-06-24T11:59:05;31.40;37.80
17437;DHT22;70275;52.198;5.422;2023-06-24T12:01:34;31.10;38.90
17437;DHT22;70275;52.198;5.422;2023-06-24T12:04:09;30.20;40.40
17437;DHT22;70275;52.198;5.422;2023-06-24T12:06:39;30.00;41.10
17437;DHT22;70275;52.198;5.422;2023-06-24T12:09:11;30.80;40.00
17437;DHT22;70275;52.198;5.422;2023-06-24T12:11:41;31.10;39.40
17437;DHT22;70275;52.198;5.422;2023-06-24T12:14:10;31.90;38.20
17437;DHT22;70275;52.198;5.422;2023-06-24T12:16:40;32.00;37.10
17437;DHT22;70275;52.198;5.422;2023-06-24T12:19:09;32.70;36.70
17437;DHT22;70275;52.198;5.422;2023-06-24T12:21:38;31.90;37.20
17437;DHT22;70275;52.198;5.422;2023-06-24T12:24:07;31.80;38.10
17437;DHT22;70275;52.198;5.422;2023-06-24T12:26:41;32.20;37.50
17437;DHT22;70275;52.198;5.422;2023-06-24T12:29:12;32.10;38.00
17437;DHT22;70275;52.198;5.422;2023-06-24T12:31:41;32.70;35.80
17437;DHT22;70275;52.198;5.422;2023-06-24T12:34:10;32.40;36.20
17437;DHT22;70275;52.198;5.422;2023-06-24T12:36:39;32.30;36.00
17437;DHT22;70275;52.198;5.422;2023-06-24T12:39:08;31.70;37.30
17437;DHT22;70275;52.198;5.422;2023-06-24T12:41:37;31.30;38.90
17437;DHT22;70275;52.198;5.422;2023-06-24T12:44:09;32.00;37.40
17437;DHT22;70275;52.198;5.422;2023-06-24T12:46:38;31.00;38.90
17437;DHT22;70275;52.198;5.422;2023-06-24T12:49:07;30.80;39.60
17437;DHT22;70275;52.198;5.422;2023-06-24T12:51:36;31.30;38.20
17437;DHT22;70275;52.198;5.422;2023-06-24T12:54:05;30.40;40.20
17437;DHT22;70275;52.198;5.422;2023-06-24T12:56:34;30.70;39.90
17437;DHT22;70275;52.198;5.422;2023-06-24T12:59:03;30.60;40.00
17437;DHT22;70275;52.198;5.422;2023-06-24T13:01:34;30.70;39.90
17437;DHT22;70275;52.198;5.422;2023-06-24T13:04:04;31.10;39.50
17437;DHT22;70275;52.198;5.422;2023-06-24T13:06:33;31.40;38.70
17437;DHT22;70275;52.198;5.422;2023-06-24T13:09:02;32.50;36.10
17437;DHT22;70275;52.198;5.422;2023-06-24T13:11:31;32.20;37.00
17437;DHT22;70275;52.198;5.422;2023-06-24T13:14:00;31.80;38.20
17437;DHT22;70275;52.198;5.422;2023-06-24T13:16:29;30.80;38.50
17437;DHT22;70275;52.198;5.422;2023-06-24T13:19:01;29.10;41.10
17437;DHT22;70275;52.198;5.422;2023-06-24T13:21:30;29.10;40.40
17437;DHT22;70275;52.198;5.422;2023-06-24T13:23:59;29.80;40.70
17437;DHT22;70275;52.198;5.422;2023-06-24T13:26:28;31.80;37.70
17437;DHT22;70275;52.198;5.422;2023-06-24T13:28:57;32.30;37.20
17437;DHT22;70275;52.198;5.422;2023-06-24T13:31:26;32.20;37.00
17437;DHT22;70275;52.198;5.422;2023-06-24T13:33:55;31.70;36.40
17437;DHT22;70275;52.198;5.422;2023-06-24T13:36:34;33.40;35.00
17437;DHT22;70275;52.198;5.422;2023-06-24T13:39:06;34.10;33.70
17437;DHT22;70275;52.198;5.422;2023-06-24T13:41:37;33.70;34.70
17437;DHT22;70275;52.198;5.422;2023-06-24T13:44:07;33.10;34.70
17437;DHT22;70275;52.198;5.422;2023-06-24T13:46:36;32.90;35.50
17437;DHT22;70275;52.198;5.422;2023-06-24T13:49:05;32.50;35.50
17437;DHT22;70275;52.198;5.422;2023-06-24T13:51:37;32.40;35.90
17437;DHT22;70275;52.198;5.422;2023-06-24T13:54:06;32.70;35.80
17437;DHT22;70275;52.198;5.422;2023-06-24T13:56:35;33.00;35.50
17437;DHT22;70275;52.198;5.422;2023-06-24T13:59:04;32.00;37.10
17437;DHT22;70275;52.198;5.422;2023-06-24T14:01:33;31.20;37.80
17437;DHT22;70275;52.198;5.422;2023-06-24T14:04:03;30.30;39.50
17437;DHT22;70275;52.198;5.422;2023-06-24T14:06:33;29.20;41.50
17437;DHT22;70275;52.198;5.422;2023-06-24T14:09:05;28.70;43.00
17437;DHT22;70275;52.198;5.422;2023-06-24T14:11:34;29.60;42.10
17437;DHT22;70275;52.198;5.422;2023-06-24T14:14:03;30.50;41.10
17437;DHT22;70275;52.198;5.422;2023-06-24T14:16:32;30.60;40.20
17437;DHT22;70275;52.198;5.422;2023-06-24T14:19:01;29.40;41.80
17437;DHT22;70275;52.198;5.422;2023-06-24T14:21:31;29.10;42.30
17437;DHT22;70275;52.198;5.422;2023-06-24T14:24:05;28.60;43.10
17437;DHT22;70275;52.198;5.422;2023-06-24T14:26:37;28.70;43.20
17437;DHT22;70275;52.198;5.422;2023-06-24T14:29:06;29.00;42.60
17437;DHT22;70275;52.198;5.422;2023-06-24T14:31:35;29.10;41.90
17437;DHT22;70275;52.198;5.422;2023-06-24T14:34:03;29.00;42.00
17437;DHT22;70275;52.198;5.422;2023-06-24T14:36:32;29.90;41.90
17437;DHT22;70275;52.198;5.422;2023-06-24T14:39:04;30.60;39.50
17437;DHT22;70275;52.198;5.422;2023-06-24T14:41:33;31.00;39.90
17437;DHT22;70275;52.198;5.422;2023-06-24T14:44:02;30.90;40.20
17437;DHT22;70275;52.198;5.422;2023-06-24T14:46:31;30.40;40.40
17437;DHT22;70275;52.198;5.422;2023-06-24T14:49:00;29.60;41.20
17437;DHT22;70275;52.198;5.422;2023-06-24T14:51:29;29.30;42.40
17437;DHT22;70275;52.198;5.422;2023-06-24T14:53:58;29.30;41.70
17437;DHT22;70275;52.198;5.422;2023-06-24T14:56:30;29.00;43.00
17437;DHT22;70275;52.198;5.422;2023-06-24T14:58:59;29.50;42.30
17437;DHT22;70275;52.198;5.422;2023-06-24T15:01:28;30.10;41.50
17437;DHT22;70275;52.198;5.422;2023-06-24T15:03:57;31.60;39.30
17437;DHT22;70275;52.198;5.422;2023-06-24T15:06:25;31.70;38.40
17437;DHT22;70275;52.198;5.422;2023-06-24T15:08:54;31.20;39.10
17437;DHT22;70275;52.198;5.422;2023-06-24T15:11:23;31.30;37.40
17437;DHT22;70275;52.198;5.422;2023-06-24T15:13:55;31.20;38.40
17437;DHT22;70275;52.198;5.422;2023-06-24T15:16:24;30.00;40.00
17437;DHT22;70275;52.198;5.422;2023-06-24T15:18:53;29.70;40.70
17437;DHT22;70275;52.198;5.422;2023-06-24T15:21:22;29.70;41.40
17437;DHT22;70275;52.198;5.422;2023-06-24T15:23:51;29.50;41.80
17437;DHT22;70275;52.198;5.422;2023-06-24T15:26:20;29.00;42.70
17437;DHT22;70275;52.198;5.422;2023-06-24T15:28:49;29.60;41.50
17437;DHT22;70275;52.198;5.422;2023-06-24T15:31:22;29.60;41.80
17437;DHT22;70275;52.198;5.422;2023-06-24T15:33:51;29.50;42.90
17437;DHT22;70275;52.198;5.422;2023-06-24T15:36:20;29.40;42.30
17437;DHT22;70275;52.198;5.422;2023-06-24T15:38:52;29.10;43.00
17437;DHT22;70275;52.198;5.422;2023-06-24T15:41:23;28.80;43.70
17437;DHT22;70275;52.198;5.422;2023-06-24T15:43:52;28.90;43.50
17437;DHT22;70275;52.198;5.422;2023-06-24T15:46:24;29.30;43.10
17437;DHT22;70275;52.198;5.422;2023-06-24T15:48:53;29.20;43.60
17437;DHT22;70275;52.198;5.422;2023-06-24T15:51:22;29.40;45.10